sensor_id;sensor_type;location;lat;lon;timestamp;temperature;humidity
25512;DHT22;13414;44.534;18.700;2023-05-10T00:01:30;11.70;99.90
25512;DHT22;13414;44.534;18.700;2023-05-10T00:03:58;11.60;99.90
25512;DHT22;13414;44.534;18.700;2023-05-10T00:06:25;11.50;99.90
25512;DHT22;13414;44.534;18.700;2023-05-10T00:08:55;11.40;99.90
25512;DHT22;13414;44.534;18.700;2023-05-10T00:11:22;11.30;99.90
25512;DHT22;13414;44.534;18.700;2023-05-10T00:13:49;11.30;99.90
25512;DHT22;13414;44.534;18.700;2023-05-10T00:16:17;11.20;99.90
25512;DHT22;13414;44.534;18.700;2023-05-10T00:18:44;11.10;99.90
25512;DHT22;13414;44.534;18.700;2023-05-10T00:21:12;11.10;99.90
25512;DHT22;13414;44.534;18.700;2023-05-10T00:23:39;11.10;99.90
25512;DHT22;13414;44.534;18.700;2023-05-10T00:26:08;11.10;99.90
25512;DHT22;13414;44.534;18.700;2023-05-10T00:28:37;11.00;99.90
25512;DHT22;13414;44.534;18.700;2023-05-10T00:31:04;11.00;99.90
25512;DHT22;13414;44.534;18.700;2023-05-10T00:33:32;10.90;99.90
25512;DHT22;13414;44.534;18.700;2023-05-10T00:35:59;10.80;99.90
25512;DHT22;13414;44.534;18.700;2023-05-10T00:38:27;10.90;99.90
25512;DHT22;13414;44.534;18.700;2023-05-10T00:40:54;10.80;99.90
25512;DHT22;13414;44.534;18.700;2023-05-10T00:43:30;10.80;99.90
25512;DHT22;13414;44.534;18.700;2023-05-10T00:45:57;10.80;99.90
25512;DHT22;13414;44.534;18.700;2023-05-10T00:48:25;10.80;99.90
25512;DHT22;13414;44.534;18.700;2023-05-10T00:50:52;10.70;99.90
25512;DHT22;13414;44.534;18.700;2023-05-10T00:53:20;10.70;99.90
25512;DHT22;13414;44.534;18.700;2023-05-10T00:55:48;10.60;99.90
25512;DHT22;13414;44.534;18.700;2023-05-10T00:58:15;10.60;99.90
25512;DHT22;13414;44.534;18.700;2023-05-10T01:00:46;10.60;99.90
25512;DHT22;13414;44.534;18.700;2023-05-10T01:03:14;10.60;99.90
25512;DHT22;13414;44.534;18.700;2023-05-10T01:05:42;10.60;99.90
25512;DHT22;13414;44.534;18.700;2023-05-10T01:08:09;10.60;99.90
25512;DHT22;13414;44.534;18.700;2023-05-10T01:10:36;10.60;99.90
25512;DHT22;13414;44.534;18.700;2023-05-10T01:13:04;10.50;99.90
25512;DHT22;13414;44.534;18.700;2023-05-10T01:15:32;10.40;99.90
25512;DHT22;13414;44.534;18.700;2023-05-10T01:18:01;10.40;99.90
25512;DHT22;13414;44.534;18.700;2023-05-10T01:20:33;10.30;99.90
25512;DHT22;13414;44.534;18.700;2023-05-10T01:26:47;10.30;99.90
25512;DHT22;13414;44.534;18.700;2023-05-10T01:32:30;10.20;99.90
25512;DHT22;13414;44.534;18.700;2023-05-10T01:35:02;10.20;99.90
25512;DHT22;13414;44.534;18.700;2023-05-10T01:37:37;10.20;99.90
25512;DHT22;13414;44.534;18.700;2023-05-10T01:40:13;10.20;99.90
25512;DHT22;13414;44.534;18.700;2023-05-10T01:42:49;10.10;99.90
25512;DHT22;13414;44.534;18.700;2023-05-10T01:45:24;10.10;99.90
25512;DHT22;13414;44.534;18.700;2023-05-10T01:48:03;10.10;99.90
25512;DHT22;13414;44.534;18.700;2023-05-10T01:50:33;10.10;99.90
25512;DHT22;13414;44.534;18.700;2023-05-10T01:53:02;10.00;99.90
25512;DHT22;13414;44.534;18.700;2023-05-10T01:55:34;9.90;99.90
25512;DHT22;13414;44.534;18.700;2023-05-10T01:58:06;9.90;99.90
25512;DHT22;13414;44.534;18.700;2023-05-10T02:00:35;9.80;99.90
25512;DHT22;13414;44.534;18.700;2023-05-10T02:03:08;9.80;99.90
25512;DHT22;13414;44.534;18.700;2023-05-10T02:05:38;9.70;99.90
25512;DHT22;13414;44.534;18.700;2023-05-10T02:08:06;9.80;99.90
25512;DHT22;13414;44.534;18.700;2023-05-10T02:10:36;9.80;99.90
25512;DHT22;13414;44.534;18.700;2023-05-10T02:13:05;9.80;99.90
25512;DHT22;13414;44.534;18.700;2023-05-10T02:15:35;9.70;99.90
25512;DHT22;13414;44.534;18.700;2023-05-10T02:18:05;9.70;99.90
25512;DHT22;13414;44.534;18.700;2023-05-10T02:20:35;9.80;99.90
25512;DHT22;13414;44.534;18.700;2023-05-10T02:23:03;9.80;99.90
25512;DHT22;13414;44.534;18.700;2023-05-10T02:25:32;9.80;99.90
25512;DHT22;13414;44.534;18.700;2023-05-10T02:28:02;9.80;99.90
25512;DHT22;13414;44.534;18.700;2023-05-10T02:30:31;9.80;99.90
25512;DHT22;13414;44.534;18.700;2023-05-10T02:32:59;9.80;99.90
25512;DHT22;13414;44.534;18.700;2023-05-10T02:35:28;9.80;99.90
25512;DHT22;13414;44.534;18.700;2023-05-10T02:37:58;9.80;99.90
25512;DHT22;13414;44.534;18.700;2023-05-10T02:40:26;9.70;99.90
25512;DHT22;13414;44.534;18.700;2023-05-10T02:42:56;9.70;99.90
25512;DHT22;13414;44.534;18.700;2023-05-10T02:45:27;9.70;99.90
25512;DHT22;13414;44.534;18.700;2023-05-10T02:47:56;9.60;99.90
25512;DHT22;13414;44.534;18.700;2023-05-10T02:50:26;9.70;99.90
25512;DHT22;13414;44.534;18.700;2023-05-10T02:52:59;9.60;99.90
25512;DHT22;13414;44.534;18.700;2023-05-10T02:55:34;9.50;99.90
25512;DHT22;13414;44.534;18.700;2023-05-10T02:58:09;9.40;99.90
25512;DHT22;13414;44.534;18.700;2023-05-10T03:00:37;9.40;99.90
25512;DHT22;13414;44.534;18.700;2023-05-10T03:03:04;9.30;99.90
25512;DHT22;13414;44.534;18.700;2023-05-10T03:05:33;9.40;99.90
25512;DHT22;13414;44.534;18.700;2023-05-10T03:08:04;9.30;99.90
25512;DHT22;13414;44.534;18.700;2023-05-10T03:10:33;9.30;99.90
25512;DHT22;13414;44.534;18.700;2023-05-10T03:13:13;9.30;99.90
25512;DHT22;13414;44.534;18.700;2023-05-10T03:15:50;9.20;99.90
25512;DHT22;13414;44.534;18.700;2023-05-10T03:18:22;9.20;99.90
25512;DHT22;13414;44.534;18.700;2023-05-10T03:20:57;9.20;99.90
25512;DHT22;13414;44.534;18.700;2023-05-10T03:23:29;9.20;99.90
25512;DHT22;13414;44.534;18.700;2023-05-10T03:25:58;9.20;99.90
25512;DHT22;13414;44.534;18.700;2023-05-10T03:28:27;9.20;99.90
25512;DHT22;13414;44.534;18.700;2023-05-10T03:30:55;9.10;99.90
25512;DHT22;13414;44.534;18.700;2023-05-10T03:33:23;9.10;99.90
25512;DHT22;13414;44.534;18.700;2023-05-10T03:35:51;9.10;99.90
25512;DHT22;13414;44.534;18.700;2023-05-10T03:38:18;9.10;99.90
25512;DHT22;13414;44.534;18.700;2023-05-10T03:40:47;9.20;99.90
25512;DHT22;13414;44.534;18.700;2023-05-10T03:43:14;9.20;99.90
25512;DHT22;13414;44.534;18.700;2023-05-10T03:45:42;9.20;99.90
25512;DHT22;13414;44.534;18.700;2023-05-10T03:48:09;9.30;99.90
25512;DHT22;13414;44.534;18.700;2023-05-10T03:50:37;9.30;99.90
25512;DHT22;13414;44.534;18.700;2023-05-10T03:53:04;9.40;99.90
25512;DHT22;13414;44.534;18.700;2023-05-10T03:55:32;9.60;99.90
25512;DHT22;13414;44.534;18.700;2023-05-10T03:58:03;10.20;99.90
25512;DHT22;13414;44.534;18.700;2023-05-10T04:00:32;10.80;99.90
25512;DHT22;13414;44.534;18.700;2023-05-10T04:03:00;11.30;99.90
25512;DHT22;13414;44.534;18.700;2023-05-10T04:05:27;11.90;99.90
25512;DHT22;13414;44.534;18.700;2023-05-10T04:07:55;12.50;99.90
25512;DHT22;13414;44.534;18.700;2023-05-10T04:10:22;12.90;99.90
25512;DHT22;13414;44.534;18.700;2023-05-10T04:12:50;13.40;99.90
25512;DHT22;13414;44.534;18.700;2023-05-10T04:15:19;13.60;99.90
25512;DHT22;13414;44.534;18.700;2023-05-10T04:17:46;14.20;99.90
25512;DHT22;13414;44.534;18.700;2023-05-10T04:20:14;14.60;99.90
25512;DHT22;13414;44.534;18.700;2023-05-10T04:22:41;14.90;99.90
25512;DHT22;13414;44.534;18.700;2023-05-10T04:25:09;15.20;99.90
25512;DHT22;13414;44.534;18.700;2023-05-10T04:27:36;15.70;99.90
25512;DHT22;13414;44.534;18.700;2023-05-10T04:30:05;16.30;99.90
25512;DHT22;13414;44.534;18.700;2023-05-10T04:32:34;17.20;99.90
25512;DHT22;13414;44.534;18.700;2023-05-10T04:35:02;17.90;98.30
25512;DHT22;13414;44.534;18.700;2023-05-10T04:37:30;18.70;93.70
25512;DHT22;13414;44.534;18.700;2023-05-10T04:39:58;18.80;89.40
25512;DHT22;13414;44.534;18.700;2023-05-10T04:42:26;18.50;86.60
25512;DHT22;13414;44.534;18.700;2023-05-10T04:44:54;18.00;86.40
25512;DHT22;13414;44.534;18.700;2023-05-10T04:47:21;17.30;87.90
25512;DHT22;13414;44.534;18.700;2023-05-10T04:49:50;16.50;90.30
25512;DHT22;13414;44.534;18.700;2023-05-10T04:52:17;15.90;94.20
25512;DHT22;13414;44.534;18.700;2023-05-10T04:54:45;15.40;99.90
25512;DHT22;13414;44.534;18.700;2023-05-10T04:57:13;15.00;99.90
25512;DHT22;13414;44.534;18.700;2023-05-10T04:59:40;14.70;99.90
25512;DHT22;13414;44.534;18.700;2023-05-10T05:02:08;14.30;99.90
25512;DHT22;13414;44.534;18.700;2023-05-10T05:04:35;14.10;99.90
25512;DHT22;13414;44.534;18.700;2023-05-10T05:07:05;14.00;99.90
25512;DHT22;13414;44.534;18.700;2023-05-10T05:09:32;14.20;99.90
25512;DHT22;13414;44.534;18.700;2023-05-10T05:11:59;14.50;99.90
25512;DHT22;13414;44.534;18.700;2023-05-10T05:14:27;15.10;99.90
25512;DHT22;13414;44.534;18.700;2023-05-10T05:16:54;16.40;99.90
25512;DHT22;13414;44.534;18.700;2023-05-10T05:19:22;17.80;99.90
25512;DHT22;13414;44.534;18.700;2023-05-10T05:21:49;19.00;93.30
25512;DHT22;13414;44.534;18.700;2023-05-10T05:24:18;20.00;88.90
25512;DHT22;13414;44.534;18.700;2023-05-10T05:26:46;20.40;81.30
25512;DHT22;13414;44.534;18.700;2023-05-10T05:29:13;20.30;77.60
25512;DHT22;13414;44.534;18.700;2023-05-10T05:31:42;20.30;76.20
25512;DHT22;13414;44.534;18.700;2023-05-10T05:34:11;20.30;77.30
25512;DHT22;13414;44.534;18.700;2023-05-10T05:36:38;20.60;75.00
25512;DHT22;13414;44.534;18.700;2023-05-10T05:39:05;21.10;72.50
25512;DHT22;13414;44.534;18.700;2023-05-10T05:41:34;21.00;71.10
25512;DHT22;13414;44.534;18.700;2023-05-10T05:44:02;20.90;71.40
25512;DHT22;13414;44.534;18.700;2023-05-10T05:46:29;20.80;71.60
25512;DHT22;13414;44.534;18.700;2023-05-10T05:48:57;20.60;72.70
25512;DHT22;13414;44.534;18.700;2023-05-10T05:51:24;20.60;72.50
25512;DHT22;13414;44.534;18.700;2023-05-10T05:53:52;20.20;71.40
25512;DHT22;13414;44.534;18.700;2023-05-10T05:56:19;19.80;72.80
25512;DHT22;13414;44.534;18.700;2023-05-10T05:58:51;19.40;74.90
25512;DHT22;13414;44.534;18.700;2023-05-10T06:01:19;19.20;76.80
25512;DHT22;13414;44.534;18.700;2023-05-10T06:03:47;19.20;78.10
25512;DHT22;13414;44.534;18.700;2023-05-10T06:06:14;19.30;79.40
25512;DHT22;13414;44.534;18.700;2023-05-10T06:08:41;19.50;78.30
25512;DHT22;13414;44.534;18.700;2023-05-10T06:11:09;19.40;78.70
25512;DHT22;13414;44.534;18.700;2023-05-10T06:13:36;19.40;77.30
25512;DHT22;13414;44.534;18.700;2023-05-10T06:16:06;19.40;76.30
25512;DHT22;13414;44.534;18.700;2023-05-10T06:18:33;19.50;77.30
25512;DHT22;13414;44.534;18.700;2023-05-10T06:21:01;19.70;76.60
25512;DHT22;13414;44.534;18.700;2023-05-10T06:23:28;19.90;76.50
25512;DHT22;13414;44.534;18.700;2023-05-10T06:25:56;20.00;75.70
25512;DHT22;13414;44.534;18.700;2023-05-10T06:28:23;20.20;75.60
25512;DHT22;13414;44.534;18.700;2023-05-10T06:30:51;20.10;74.10
25512;DHT22;13414;44.534;18.700;2023-05-10T06:33:20;20.10;73.60
25512;DHT22;13414;44.534;18.700;2023-05-10T06:35:48;20.00;74.50
25512;DHT22;13414;44.534;18.700;2023-05-10T06:38:15;20.00;74.10
25512;DHT22;13414;44.534;18.700;2023-05-10T06:40:43;20.00;74.30
25512;DHT22;13414;44.534;18.700;2023-05-10T06:43:12;19.70;74.20
25512;DHT22;13414;44.534;18.700;2023-05-10T06:45:40;19.60;74.70
25512;DHT22;13414;44.534;18.700;2023-05-10T06:48:08;19.80;75.10
25512;DHT22;13414;44.534;18.700;2023-05-10T06:50:37;19.90;74.90
25512;DHT22;13414;44.534;18.700;2023-05-10T06:53:04;19.90;74.90
25512;DHT22;13414;44.534;18.700;2023-05-10T06:55:32;20.10;74.60
25512;DHT22;13414;44.534;18.700;2023-05-10T06:57:59;20.40;72.20
25512;DHT22;13414;44.534;18.700;2023-05-10T07:00:26;20.40;72.20
25512;DHT22;13414;44.534;18.700;2023-05-10T07:02:54;20.60;72.50
25512;DHT22;13414;44.534;18.700;2023-05-10T07:05:22;20.70;71.40
25512;DHT22;13414;44.534;18.700;2023-05-10T07:07:50;20.80;71.90
25512;DHT22;13414;44.534;18.700;2023-05-10T07:10:18;20.80;71.60
25512;DHT22;13414;44.534;18.700;2023-05-10T07:12:46;20.70;72.00
25512;DHT22;13414;44.534;18.700;2023-05-10T07:15:13;20.70;71.90
25512;DHT22;13414;44.534;18.700;2023-05-10T07:17:41;20.60;71.50
25512;DHT22;13414;44.534;18.700;2023-05-10T07:20:09;20.20;73.10
25512;DHT22;13414;44.534;18.700;2023-05-10T07:22:37;19.80;72.40
25512;DHT22;13414;44.534;18.700;2023-05-10T07:25:06;19.90;75.10
25512;DHT22;13414;44.534;18.700;2023-05-10T07:27:34;19.80;74.70
25512;DHT22;13414;44.534;18.700;2023-05-10T07:30:02;19.90;75.20
25512;DHT22;13414;44.534;18.700;2023-05-10T07:32:29;20.20;73.90
25512;DHT22;13414;44.534;18.700;2023-05-10T07:34:57;20.30;73.90
25512;DHT22;13414;44.534;18.700;2023-05-10T07:37:24;20.50;72.70
25512;DHT22;13414;44.534;18.700;2023-05-10T07:39:52;20.40;73.80
25512;DHT22;13414;44.534;18.700;2023-05-10T07:42:20;20.20;73.20
25512;DHT22;13414;44.534;18.700;2023-05-10T07:44:48;20.10;73.70
25512;DHT22;13414;44.534;18.700;2023-05-10T07:47:15;20.30;73.10
25512;DHT22;13414;44.534;18.700;2023-05-10T07:49:43;20.40;73.80
25512;DHT22;13414;44.534;18.700;2023-05-10T07:52:10;20.60;72.90
25512;DHT22;13414;44.534;18.700;2023-05-10T07:54:37;20.70;72.30
25512;DHT22;13414;44.534;18.700;2023-05-10T07:57:05;20.80;71.50
25512;DHT22;13414;44.534;18.700;2023-05-10T07:59:34;20.90;70.90
25512;DHT22;13414;44.534;18.700;2023-05-10T08:02:02;20.90;69.70
25512;DHT22;13414;44.534;18.700;2023-05-10T08:04:29;20.90;70.60
25512;DHT22;13414;44.534;18.700;2023-05-10T08:06:57;20.40;71.00
25512;DHT22;13414;44.534;18.700;2023-05-10T08:09:24;20.20;72.70
25512;DHT22;13414;44.534;18.700;2023-05-10T08:11:52;19.90;73.30
25512;DHT22;13414;44.534;18.700;2023-05-10T08:14:19;20.10;74.40
25512;DHT22;13414;44.534;18.700;2023-05-10T08:16:48;20.40;74.10
25512;DHT22;13414;44.534;18.700;2023-05-10T08:19:15;20.80;72.70
25512;DHT22;13414;44.534;18.700;2023-05-10T08:21:44;21.00;71.30
25512;DHT22;13414;44.534;18.700;2023-05-10T08:24:12;21.30;70.50
25512;DHT22;13414;44.534;18.700;2023-05-10T08:26:39;21.30;71.20
25512;DHT22;13414;44.534;18.700;2023-05-10T08:29:07;21.40;71.30
25512;DHT22;13414;44.534;18.700;2023-05-10T08:31:34;21.40;69.90
25512;DHT22;13414;44.534;18.700;2023-05-10T08:34:03;21.00;69.80
25512;DHT22;13414;44.534;18.700;2023-05-10T08:36:31;21.00;70.00
25512;DHT22;13414;44.534;18.700;2023-05-10T08:38:58;21.40;68.90
25512;DHT22;13414;44.534;18.700;2023-05-10T08:41:26;21.50;68.20
25512;DHT22;13414;44.534;18.700;2023-05-10T08:43:54;21.80;67.80
25512;DHT22;13414;44.534;18.700;2023-05-10T08:46:22;22.00;66.70
25512;DHT22;13414;44.534;18.700;2023-05-10T08:48:50;22.30;66.60
25512;DHT22;13414;44.534;18.700;2023-05-10T08:51:22;22.60;65.80
25512;DHT22;13414;44.534;18.700;2023-05-10T08:53:52;23.00;63.70
25512;DHT22;13414;44.534;18.700;2023-05-10T08:56:20;23.30;61.80
25512;DHT22;13414;44.534;18.700;2023-05-10T08:58:47;23.50;60.90
25512;DHT22;13414;44.534;18.700;2023-05-10T09:01:16;23.90;59.60
25512;DHT22;13414;44.534;18.700;2023-05-10T09:03:46;24.30;58.00
25512;DHT22;13414;44.534;18.700;2023-05-10T09:06:14;24.00;60.00
25512;DHT22;13414;44.534;18.700;2023-05-10T09:08:43;23.60;61.60
25512;DHT22;13414;44.534;18.700;2023-05-10T09:11:12;23.10;62.40
25512;DHT22;13414;44.534;18.700;2023-05-10T09:13:40;22.50;62.80
25512;DHT22;13414;44.534;18.700;2023-05-10T09:16:09;22.20;64.70
25512;DHT22;13414;44.534;18.700;2023-05-10T09:18:36;22.00;66.50
25512;DHT22;13414;44.534;18.700;2023-05-10T09:21:04;21.70;67.40
25512;DHT22;13414;44.534;18.700;2023-05-10T09:23:31;21.50;67.70
25512;DHT22;13414;44.534;18.700;2023-05-10T09:26:04;21.30;70.70
25512;DHT22;13414;44.534;18.700;2023-05-10T09:28:32;21.10;70.10
25512;DHT22;13414;44.534;18.700;2023-05-10T09:31:00;21.30;70.20
25512;DHT22;13414;44.534;18.700;2023-05-10T09:33:27;21.60;69.40
25512;DHT22;13414;44.534;18.700;2023-05-10T09:35:55;21.80;69.40
25512;DHT22;13414;44.534;18.700;2023-05-10T09:38:45;22.00;68.10
25512;DHT22;13414;44.534;18.700;2023-05-10T09:41:17;22.10;67.60
25512;DHT22;13414;44.534;18.700;2023-05-10T09:43:46;22.50;68.20
25512;DHT22;13414;44.534;18.700;2023-05-10T09:46:14;22.20;66.50
25512;DHT22;13414;44.534;18.700;2023-05-10T09:48:45;22.10;67.80
25512;DHT22;13414;44.534;18.700;2023-05-10T09:51:19;22.30;67.30
25512;DHT22;13414;44.534;18.700;2023-05-10T09:53:47;22.90;66.30
25512;DHT22;13414;44.534;18.700;2023-05-10T09:56:35;23.00;65.00
25512;DHT22;13414;44.534;18.700;2023-05-10T09:59:05;23.00;63.60
25512;DHT22;13414;44.534;18.700;2023-05-10T10:01:33;23.30;63.60
25512;DHT22;13414;44.534;18.700;2023-05-10T10:04:03;23.40;63.40
25512;DHT22;13414;44.534;18.700;2023-05-10T10:06:35;23.50;61.90
25512;DHT22;13414;44.534;18.700;2023-05-10T10:09:04;23.70;61.50
25512;DHT22;13414;44.534;18.700;2023-05-10T10:11:31;23.70;62.50
25512;DHT22;13414;44.534;18.700;2023-05-10T10:14:01;24.00;61.70
25512;DHT22;13414;44.534;18.700;2023-05-10T10:16:29;24.10;61.40
25512;DHT22;13414;44.534;18.700;2023-05-10T10:18:57;23.90;62.10
25512;DHT22;13414;44.534;18.700;2023-05-10T10:21:25;24.50;61.10
25512;DHT22;13414;44.534;18.700;2023-05-10T10:23:52;24.50;61.90
25512;DHT22;13414;44.534;18.700;2023-05-10T10:26:21;24.70;61.00
25512;DHT22;13414;44.534;18.700;2023-05-10T10:29:00;24.50;60.60
25512;DHT22;13414;44.534;18.700;2023-05-10T10:31:39;24.20;60.90
25512;DHT22;13414;44.534;18.700;2023-05-10T10:34:09;23.70;61.20
25512;DHT22;13414;44.534;18.700;2023-05-10T10:36:44;23.50;62.30
25512;DHT22;13414;44.534;18.700;2023-05-10T10:39:13;23.40;63.30
25512;DHT22;13414;44.534;18.700;2023-05-10T10:41:48;23.50;63.20
25512;DHT22;13414;44.534;18.700;2023-05-10T10:47:07;23.40;63.30
25512;DHT22;13414;44.534;18.700;2023-05-10T10:49:50;23.60;63.00
25512;DHT22;13414;44.534;18.700;2023-05-10T10:52:23;23.40;62.80
25512;DHT22;13414;44.534;18.700;2023-05-10T10:54:59;23.40;63.00
25512;DHT22;13414;44.534;18.700;2023-05-10T10:57:27;23.40;63.30
25512;DHT22;13414;44.534;18.700;2023-05-10T11:00:26;23.50;63.60
25512;DHT22;13414;44.534;18.700;2023-05-10T11:02:57;23.50;62.90
25512;DHT22;13414;44.534;18.700;2023-05-10T11:05:40;23.40;62.40
25512;DHT22;13414;44.534;18.700;2023-05-10T11:08:11;23.60;62.90
25512;DHT22;13414;44.534;18.700;2023-05-10T11:10:39;23.40;63.50
25512;DHT22;13414;44.534;18.700;2023-05-10T11:13:08;23.10;63.20
25512;DHT22;13414;44.534;18.700;2023-05-10T11:15:38;23.00;65.40
25512;DHT22;13414;44.534;18.700;2023-05-10T11:18:23;22.90;64.30
25512;DHT22;13414;44.534;18.700;2023-05-10T11:20:51;22.80;64.80
25512;DHT22;13414;44.534;18.700;2023-05-10T11:23:19;22.60;64.40
25512;DHT22;13414;44.534;18.700;2023-05-10T11:25:48;22.50;65.60
25512;DHT22;13414;44.534;18.700;2023-05-10T11:28:17;22.30;66.50
25512;DHT22;13414;44.534;18.700;2023-05-10T11:30:45;22.30;66.90
25512;DHT22;13414;44.534;18.700;2023-05-10T11:33:16;22.40;66.90
25512;DHT22;13414;44.534;18.700;2023-05-10T11:35:46;22.20;67.20
25512;DHT22;13414;44.534;18.700;2023-05-10T11:38:14;22.20;68.30
25512;DHT22;13414;44.534;18.700;2023-05-10T11:40:42;22.10;67.60
25512;DHT22;13414;44.534;18.700;2023-05-10T11:43:09;22.20;67.80
25512;DHT22;13414;44.534;18.700;2023-05-10T11:45:39;22.40;66.90
25512;DHT22;13414;44.534;18.700;2023-05-10T11:48:08;22.60;66.50
25512;DHT22;13414;44.534;18.700;2023-05-10T11:50:35;22.60;65.80
25512;DHT22;13414;44.534;18.700;2023-05-10T11:53:06;22.70;66.30
25512;DHT22;13414;44.534;18.700;2023-05-10T11:55:34;22.80;66.00
25512;DHT22;13414;44.534;18.700;2023-05-10T11:58:01;22.70;65.60
25512;DHT22;13414;44.534;18.700;2023-05-10T12:00:30;22.70;65.80
25512;DHT22;13414;44.534;18.700;2023-05-10T12:02:59;22.70;65.30
25512;DHT22;13414;44.534;18.700;2023-05-10T12:05:27;22.70;66.10
25512;DHT22;13414;44.534;18.700;2023-05-10T12:08:14;22.70;66.00
25512;DHT22;13414;44.534;18.700;2023-05-10T12:10:42;22.70;66.00
25512;DHT22;13414;44.534;18.700;2023-05-10T12:13:12;23.00;65.50
25512;DHT22;13414;44.534;18.700;2023-05-10T12:15:41;23.00;65.00
25512;DHT22;13414;44.534;18.700;2023-05-10T12:18:09;23.10;63.80
25512;DHT22;13414;44.534;18.700;2023-05-10T12:20:37;23.10;64.20
25512;DHT22;13414;44.534;18.700;2023-05-10T12:23:05;23.00;65.10
25512;DHT22;13414;44.534;18.700;2023-05-10T12:25:44;22.80;65.30
25512;DHT22;13414;44.534;18.700;2023-05-10T12:28:11;22.90;63.80
25512;DHT22;13414;44.534;18.700;2023-05-10T12:30:39;23.00;63.90
25512;DHT22;13414;44.534;18.700;2023-05-10T12:33:12;23.20;62.90
25512;DHT22;13414;44.534;18.700;2023-05-10T12:35:45;23.30;62.50
25512;DHT22;13414;44.534;18.700;2023-05-10T12:38:26;23.30;62.70
25512;DHT22;13414;44.534;18.700;2023-05-10T12:40:57;23.20;63.30
25512;DHT22;13414;44.534;18.700;2023-05-10T12:43:25;23.00;63.30
25512;DHT22;13414;44.534;18.700;2023-05-10T12:45:52;23.00;63.80
25512;DHT22;13414;44.534;18.700;2023-05-10T12:48:20;22.90;64.80
25512;DHT22;13414;44.534;18.700;2023-05-10T12:50:47;23.00;64.70
25512;DHT22;13414;44.534;18.700;2023-05-10T12:53:15;23.00;64.90
25512;DHT22;13414;44.534;18.700;2023-05-10T12:55:43;23.00;65.80
25512;DHT22;13414;44.534;18.700;2023-05-10T12:58:11;23.00;65.50
25512;DHT22;13414;44.534;18.700;2023-05-10T13:00:39;22.90;65.40
25512;DHT22;13414;44.534;18.700;2023-05-10T13:03:06;22.70;66.10
25512;DHT22;13414;44.534;18.700;2023-05-10T13:05:34;22.60;65.40
25512;DHT22;13414;44.534;18.700;2023-05-10T13:08:01;22.60;66.20
25512;DHT22;13414;44.534;18.700;2023-05-10T13:10:29;22.40;67.00
25512;DHT22;13414;44.534;18.700;2023-05-10T13:12:58;22.30;67.20
25512;DHT22;13414;44.534;18.700;2023-05-10T13:15:27;22.20;67.40
25512;DHT22;13414;44.534;18.700;2023-05-10T13:17:55;22.10;67.80
25512;DHT22;13414;44.534;18.700;2023-05-10T13:20:22;22.10;68.60
25512;DHT22;13414;44.534;18.700;2023-05-10T13:22:50;22.10;69.10
25512;DHT22;13414;44.534;18.700;2023-05-10T13:25:17;22.10;68.60
25512;DHT22;13414;44.534;18.700;2023-05-10T13:27:44;22.20;67.00
25512;DHT22;13414;44.534;18.700;2023-05-10T13:30:12;22.10;67.80
25512;DHT22;13414;44.534;18.700;2023-05-10T13:32:41;22.10;68.50
25512;DHT22;13414;44.534;18.700;2023-05-10T13:35:09;22.00;68.70
25512;DHT22;13414;44.534;18.700;2023-05-10T13:37:36;22.10;69.40
25512;DHT22;13414;44.534;18.700;2023-05-10T13:40:05;22.30;69.00
25512;DHT22;13414;44.534;18.700;2023-05-10T13:42:33;22.20;68.00
25512;DHT22;13414;44.534;18.700;2023-05-10T13:45:02;22.00;67.30
25512;DHT22;13414;44.534;18.700;2023-05-10T13:47:29;21.70;69.00
25512;DHT22;13414;44.534;18.700;2023-05-10T13:49:58;21.50;70.40
25512;DHT22;13414;44.534;18.700;2023-05-10T13:52:26;21.60;71.40
25512;DHT22;13414;44.534;18.700;2023-05-10T13:54:54;21.70;71.00
25512;DHT22;13414;44.534;18.700;2023-05-10T13:57:22;21.80;71.40
25512;DHT22;13414;44.534;18.700;2023-05-10T13:59:50;21.80;71.20
25512;DHT22;13414;44.534;18.700;2023-05-10T14:02:18;21.90;72.00
25512;DHT22;13414;44.534;18.700;2023-05-10T14:04:45;22.00;71.80
25512;DHT22;13414;44.534;18.700;2023-05-10T14:07:15;22.10;71.00
25512;DHT22;13414;44.534;18.700;2023-05-10T14:09:43;22.00;70.60
25512;DHT22;13414;44.534;18.700;2023-05-10T14:12:11;21.80;71.10
25512;DHT22;13414;44.534;18.700;2023-05-10T14:14:38;21.60;71.60
25512;DHT22;13414;44.534;18.700;2023-05-10T14:17:05;21.50;72.30
25512;DHT22;13414;44.534;18.700;2023-05-10T14:19:33;21.30;73.00
25512;DHT22;13414;44.534;18.700;2023-05-10T14:22:01;21.10;74.30
25512;DHT22;13414;44.534;18.700;2023-05-10T14:24:30;21.10;75.60
25512;DHT22;13414;44.534;18.700;2023-05-10T14:26:58;21.20;76.20
25512;DHT22;13414;44.534;18.700;2023-05-10T14:29:26;21.30;76.80
25512;DHT22;13414;44.534;18.700;2023-05-10T14:31:53;21.50;75.70
25512;DHT22;13414;44.534;18.700;2023-05-10T14:34:23;21.70;74.40
25512;DHT22;13414;44.534;18.700;2023-05-10T14:36:50;21.80;74.30
25512;DHT22;13414;44.534;18.700;2023-05-10T14:39:18;21.90;73.40
25512;DHT22;13414;44.534;18.700;2023-05-10T14:41:47;22.00;73.50
25512;DHT22;13414;44.534;18.700;2023-05-10T14:44:14;22.20;73.30
25512;DHT22;13414;44.534;18.700;2023-05-10T14:46:42;22.10;72.60
25512;DHT22;13414;44.534;18.700;2023-05-10T14:49:09;22.10;72.50
25512;DHT22;13414;44.534;18.700;2023-05-10T14:51:37;22.10;73.60
25512;DHT22;13414;44.534;18.700;2023-05-10T14:54:04;22.00;74.30
25512;DHT22;13414;44.534;18.700;2023-05-10T14:56:32;22.10;74.60
25512;DHT22;13414;44.534;18.700;2023-05-10T14:59:01;22.20;74.70
25512;DHT22;13414;44.534;18.700;2023-05-10T15:01:29;22.20;74.00
25512;DHT22;13414;44.534;18.700;2023-05-10T15:03:58;22.10;73.50
25512;DHT22;13414;44.534;18.700;2023-05-10T15:06:30;21.80;73.40
25512;DHT22;13414;44.534;18.700;2023-05-10T15:08:58;21.70;73.70
25512;DHT22;13414;44.534;18.700;2023-05-10T15:11:26;21.60;75.30
25512;DHT22;13414;44.534;18.700;2023-05-10T15:13:55;21.70;76.10
25512;DHT22;13414;44.534;18.700;2023-05-10T15:16:23;21.70;75.80
25512;DHT22;13414;44.534;18.700;2023-05-10T15:18:51;21.70;75.00
25512;DHT22;13414;44.534;18.700;2023-05-10T15:21:18;21.50;75.70
25512;DHT22;13414;44.534;18.700;2023-05-10T15:23:47;21.50;74.90
25512;DHT22;13414;44.534;18.700;2023-05-10T15:26:14;21.30;75.80
25512;DHT22;13414;44.534;18.700;2023-05-10T15:28:42;21.10;76.80
25512;DHT22;13414;44.534;18.700;2023-05-10T15:31:10;21.00;78.60
25512;DHT22;13414;44.534;18.700;2023-05-10T15:33:38;21.00;79.50
25512;DHT22;13414;44.534;18.700;2023-05-10T15:36:06;21.00;79.90
25512;DHT22;13414;44.534;18.700;2023-05-10T15:38:34;20.80;80.50